Nearby METAR Reports

 

KOKB - Oceanside, California, USA
Distance from station: W 1mi, 2km
Updated: Mon, 08-Aug-2022 9:52pm PDT
Clear
Clear
 Wind from WNW
Wind: WNW 3 mph , 6 km/h
Temperature: 73°F , 23°C
Dew Point: 66°F , 19°C
Humidity: 78%
Barometer: 29.91 inHg , 1012.9 hPa
Clouds: Clear
Visibility: 9 miles , 14 km
2022/08/09 04:52 KOKB 090452Z AUTO 29003KT 9SM CLR 23/19 A2991 RMK AO2 SLP129 T02330189
KNFG - Camp Pendleton, California, USA
Distance from station: N 5mi, 8km
Updated: Mon, 08-Aug-2022 9:52pm PDT
Clear
Clear
 Wind from W
Wind: W 3 mph , 6 km/h
Temperature: 73°F , 23°C
Dew Point: 66°F , 19°C
Humidity: 78%
Barometer: 29.92 inHg , 1013.2 hPa
Clouds: Clear
Visibility: 10 miles , 16 km
2022/08/09 04:52 KNFG 090452Z 26003KT 10SM CLR 23/19 A2992 RMK AO2 SLP131 T02280189
 
KCRQ - Carlsbad, California, USA
Distance from station: SSE 6mi, 10km
Updated: Mon, 08-Aug-2022 8:53pm PDT
Clear
Clear
 Wind from calm
Wind: Calm
Temperature: 73°F , 23°C
Dew Point: 64°F , 18°C
Humidity: 74%
Barometer: 29.92 inHg , 1013.2 hPa
Clouds: Clear
Visibility: 10 miles , 16 km
2022/08/09 03:53 KCRQ 090353Z 00000KT 10SM CLR 23/18 A2992 RMK AO2 SLP127 T02280178
KL18 - Fallbrook, California, USA
Distance from station: NNE 10mi, 17km
Updated: Mon, 08-Aug-2022 9:55pm PDT
Clear
Clear
 Wind from calm
Wind: Calm
Temperature: 75°F , 24°C
Dew Point: 61°F , 16°C
Humidity: 61%
Barometer: 29.95 inHg , 1014.2 hPa
Clouds: Clear
Visibility: 10 miles , 16 km
2022/08/09 04:55 KL18 090455Z AUTO 00000KT 10SM CLR 24/16 A2995 RMK AO2
 
KNKX - Miramar Nas/San, California, USA
Distance from station: SSE 26mi, 43km
Updated: Mon, 08-Aug-2022 8:55pm PDT
Light rain, Mostly cloudy
Light rain, Mostly cloudy
 Wind from calm
Wind: Calm
Temperature: 73°F , 23°C
Dew Point: 66°F , 19°C
Humidity: 78%
Barometer: 29.93 inHg , 1013.5 hPa
Summary: Light rain
Clouds: Mostly cloudy
Visibility: 10 miles , 16 km
Cloud details: Few Clouds 12000 ft
Mostly cloudy 20000 ft
2022/08/09 03:55 KNKX 090355Z 00000KT 10SM -RA FEW120 BKN200 23/19 A2993 RMK AO2 SLP127 P0003 T02280194
KF70 - Murrieta/Temecul, California, USA
Distance from station: NNE 27mi, 43km
Updated: Mon, 08-Aug-2022 9:35pm PDT
Clear
Clear
 Wind from calm
Wind: Calm
Temperature: 79°F , 26°C
Dew Point: 45°F , 7°C
Humidity: 30%
Barometer: 29.97 inHg , 1014.9 hPa
Clouds: Clear
Visibility: 10 miles , 16 km
2022/08/09 04:35 KF70 090435Z AUTO 00000KT 10SM CLR 26/07 A2997 RMK AO2
 
KRNM - Ramona, California, USA
Distance from station: ESE 27mi, 43km
Updated: Mon, 08-Aug-2022 8:53pm PDT
Partly cloudy
Partly cloudy
 Wind from SSW
Wind: SSW 5 mph , 7 km/h
Temperature: 79°F , 26°C
Dew Point: 48°F , 9°C
Humidity: 34%
Barometer: 29.97 inHg , 1014.9 hPa
Clouds: Partly cloudy
Visibility: 10 miles , 16 km
Cloud details: Few Clouds 8500 ft
Partly cloudy 11000 ft
2022/08/09 03:53 KRNM 090353Z AUTO 20004KT 10SM FEW085 SCT110 26/09 A2997 RMK AO2 RAB31E52 SLP128 P0000 T02560089
KMYF - San Diego/Mntgmy, California, USA
Distance from station: SSE 30mi, 48km
Updated: Mon, 08-Aug-2022 8:53pm PDT
Light rain, Partly cloudy
Light rain, Partly cloudy
 Wind from calm
Wind: Calm
Temperature: 73°F , 23°C
Dew Point: 66°F , 19°C
Humidity: 78%
Barometer: 29.93 inHg , 1013.5 hPa
Summary: Light rain
Clouds: Partly cloudy
Visibility: 10 miles , 16 km
Cloud details: Partly cloudy 11000 ft
2022/08/09 03:53 KMYF 090353Z 00000KT 10SM -RA SCT110 23/19 A2993 RMK AO2 SLP130 P0001 T02330189
 
KSAN - San Diego, California, USA
Distance from station: SSE 34mi, 55km
Updated: Mon, 08-Aug-2022 9:51pm PDT
Mostly cloudy
Mostly cloudy
 Wind from varies
Wind: varies 5 mph , 7 km/h
Temperature: 73°F , 23°C
Dew Point: 66°F , 19°C
Humidity: 78%
Barometer: 29.94 inHg , 1013.9 hPa
Clouds: Mostly cloudy
Visibility: 10 miles , 16 km
Cloud details: Few Clouds 7000 ft
Partly cloudy 17000 ft
Mostly cloudy 25000 ft
2022/08/09 04:51 KSAN 090451Z VRB04KT 10SM FEW070 SCT170 BKN250 23/19 A2994 RMK AO2 RAE02 SLP138 P0000 T02330189
KSEE - San Diego/Santee, California, USA
Distance from station: SE 34mi, 55km
Updated: Mon, 08-Aug-2022 9:35pm PDT
Clear
Clear
 Wind from calm
Wind: Calm
Temperature: 75°F , 24°C
Dew Point: 66°F , 19°C
Humidity: 74%
Barometer: 29.92 inHg , 1013.2 hPa
Clouds: Clear
Visibility: 10 miles , 16 km
2022/08/09 04:35 KSEE 090435Z AUTO 00000KT 10SM CLR 24/19 A2992 RMK AO2
 
KNZY - North Island Nas, California, USA
Distance from station: S 36mi, 58km
Updated: Mon, 08-Aug-2022 9:52pm PDT
Mostly cloudy
Mostly cloudy
 Wind from SW
Wind: SW 5 mph , 7 km/h
Temperature: 70°F , 21°C
Dew Point: 66°F , 19°C
Humidity: 88%
Barometer: 29.92 inHg , 1013.2 hPa
Clouds: Mostly cloudy
Visibility: 7 miles , 11 km
Cloud details: Few Clouds 5000 ft
Partly cloudy 18000 ft
Mostly cloudy 25000 ft
2022/08/09 04:52 KNZY 090452Z 22004KT 7SM FEW050 SCT180 BKN250 21/19 A2992 RMK AO2 SLP132 T02110194
KHMT - Hemet, California, USA
Distance from station: NNE 40mi, 65km
Updated: Mon, 08-Aug-2022 9:35pm PDT
Clear
Clear
 Wind from W
Wind: W 6 mph , 9 km/h
Temperature: 79°F , 26°C
Dew Point: 43°F , 6°C
Humidity: 28%
Barometer: 29.99 inHg , 1015.6 hPa
Clouds: Clear
Visibility: 10 miles , 16 km
2022/08/09 04:35 KHMT 090435Z AUTO 26005KT 10SM CLR 26/06 A2999 RMK AO2 T02630065
 
KSNA - Costa Mesa, California, USA
Distance from station: NW 44mi, 71km
Updated: Mon, 08-Aug-2022 8:53pm PDT
Mostly cloudy
Mostly cloudy
 Wind from SW
Wind: SW 7 mph , 11 km/h
Temperature: 75°F , 24°C
Dew Point: 66°F , 19°C
Humidity: 74%
Barometer: 29.91 inHg , 1012.9 hPa
Clouds: Mostly cloudy
Visibility: 10 miles , 16 km
Cloud details: Partly cloudy 11000 ft
Mostly cloudy 18000 ft
Mostly cloudy 30000 ft
2022/08/09 03:53 KSNA 090353Z 22006KT 10SM SCT110 BKN180 BKN300 24/19 A2991 RMK AO2 SLP127 T02390189
KRIV - Riverside/March, California, USA
Distance from station: N 45mi, 73km
Updated: Mon, 08-Aug-2022 8:58pm PDT
Mostly cloudy
Mostly cloudy
 Wind from SE
Wind: SE 5 mph , 7 km/h
Temperature: 86°F , 30°C
Dew Point: 41°F , 5°C
Humidity: 20%
Barometer: 29.96 inHg , 1014.6 hPa
Clouds: Mostly cloudy
Visibility: 10 miles , 16 km
Cloud details: Mostly cloudy 16000 ft
2022/08/09 03:58 KRIV 090358Z AUTO 14004KT 10SM BKN160 30/05 A2996 RMK AO2 SLP128 T03010054
 
KNRS - Imperial Beach, California, USA
Distance from station: SSE 46mi, 75km
Updated: Mon, 08-Aug-2022 9:53pm PDT
Mostly cloudy
Mostly cloudy
 Wind from SW
Wind: SW 3 mph , 6 km/h
Temperature: 70°F , 21°C
Dew Point: 66°F , 19°C
Humidity: 88%
Barometer: 29.93 inHg , 1013.5 hPa
Clouds: Mostly cloudy
Visibility: 9 miles , 14 km
Cloud details: Few Clouds 6000 ft
Partly cloudy 16000 ft
Mostly cloudy 25000 ft
2022/08/09 04:53 KNRS 090453Z 22003KT 9SM FEW060 SCT160 BKN250 21/19 A2993 RMK AO2 SLP135 T021101
KSDM - San Diego/Brown, California, USA
Distance from station: SSE 48mi, 76km
Updated: Mon, 08-Aug-2022 8:53pm PDT
Clear
Clear
 Wind from W
Wind: W 7 mph , 11 km/h
Temperature: 73°F , 23°C
Dew Point: 63°F , 17°C
Humidity: 69%
Barometer: 29.93 inHg , 1013.5 hPa
Clouds: Clear
Visibility: 10 miles , 16 km
2022/08/09 03:53 KSDM 090353Z AUTO 28006KT 10SM CLR 23/17 A2993 RMK AO2 SLP130 T02280167
 
KAJO - Corona Muni, California, USA
Distance from station: NNW 50mi, 80km
Updated: Mon, 08-Aug-2022 8:56pm PDT
Clear
Clear
 Wind from W
Wind: W 9 mph , 15 km/h
Temperature: 81°F , 27°C
Heat Index: 82°F , 28°C
Dew Point: 61°F , 16°C
Humidity: 51%
Barometer: 29.91 inHg , 1012.9 hPa
Clouds: Clear
Visibility: 10 miles , 16 km
2022/08/09 03:56 KAJO 090356Z AUTO 28008KT 10SM CLR 27/16 A2991 RMK AO2 SLP121 T02670156